Nu Mine, PA (16244)

10:39 PM EST on November 22, 2014 (GMT -0500)
Armstrong Energy | Change Station
CLOSE
Current Station
Personal Weather Station
Location: Shelocta, PA
Elevation: 1080 ft
Nearby Weather Stations

Elev 1080 ft 40.64 °N, 79.35 °W | Updated 4 minutes ago

Overcast
Overcast
41.2 °F
Feels Like 41 °F
N
0.0
Wind Variable Wind from SSE
Gusts 0.0 mph

Today
High -- | Low -- °F
--% Chance of Precip.
Yesterday
High -- | Low -- °F
Precip. -- in
7:12 AM 4:53 PM
New Moon, 0% visible
Pressure 30.15 in
Visibility 10.0 miles
Clouds Few 4800 ft
Overcast 6000 ft
Windchill 41 °F
Dew Point 35 °F
Humidity 79%
Rainfall 0.02 in
Snow Depth Not available.
UV 0.0 out of 12
Pollen .10 out of 12
Air Quality Not available.
Flu Activity Not available.
METAR KIDI 230335Z AUTO 23006KT 10SM FEW048 OVC060 08/00 A3015 RMK A01

More Conditions Fewer Conditions

Pressure 30.15 in
Visibility 10.0 miles
Clouds Few 4800 ft
Overcast 6000 ft
Windchill 41 °F
Dew Point 35 °F
Humidity 79%
Rainfall 0.02 in
Snow Depth Not available.
UV 0.0 out of 12
Pollen .10 out of 12
Air Quality Not available.
Flu Activity Not available.
METAR KIDI 230335Z AUTO 23006KT 10SM FEW048 OVC060 08/00 A3015 RMK A01

More Conditions Fewer Conditions

10-Day Weather Forecast

Almanac

Astronomy

Nov. 22, 2014 Rise Set
Actual Time
Civil Twilight
Nautical Twilight
Astronomical Twilight
Moon
Length of Visible Light
Length of Day
Tomorrow will be .
, % of the Moon is Illuminated

Today's Extremes

State Highs State Lows

Community

WunderPhotos

Upload Photos

1,772,991 photos uploaded!

WunderBlogs® & News

Nearby

Air Quality

  Air Quality AQ Index Pollutant
Not available.

Snow Depth

Station Depth Elevation

Earthquake Activity

City Distance Mag. Time & Date
Minimum magnitude displayed is 2.5.

Coastal Water Temperatures

Place Temperature

Nearby Weather Stations